Time;durP1;ratioP1;P1;durP2;ratioP2;P2;SDS_P1;SDS_P2;PMS_P1;PMS_P2;Temp;Humidity;BMP_temperature;BMP_pressure;BME280_temperature;BME280_humidity;BME280_pressure;Samples;Min_cycle;Max_cycle;Signal;HPM_P1;HPM_P2
2022/10/19 00:01:52;;;;;;;6.35;3.33;;;22.70;58.50;;;;;;5029270;28;20116;-69
2022/10/19 00:04:18;;;;;;;4.93;3.20;;;22.80;58.40;;;;;;5031865;28;20120;-68
2022/10/19 00:06:45;;;;;;;4.45;3.75;;;22.80;58.30;;;;;;5044617;28;20348;-68
2022/10/19 00:09:17;;;;;;;4.88;3.13;;;22.80;58.30;;;;;;5038618;28;20115;-68
2022/10/19 00:11:45;;;;;;;6.50;3.17;;;22.90;58.40;;;;;;5042262;28;20042;-68
2022/10/19 00:14:15;;;;;;;6.97;3.30;;;22.80;58.30;;;;;;5028308;28;20048;-68
2022/10/19 00:16:42;;;;;;;6.75;2.95;;;22.80;58.30;;;;;;5029452;28;20056;-68
2022/10/19 00:19:13;;;;;;;4.78;3.20;;;22.80;58.20;;;;;;5033087;28;20029;-68
2022/10/19 00:21:39;;;;;;;6.07;3.40;;;22.80;58.40;;;;;;5032586;28;20041;-68
2022/10/19 00:24:07;;;;;;;3.72;2.92;;;22.70;58.30;;;;;;5044118;28;20094;-68
2022/10/19 00:26:33;;;;;;;4.60;2.95;;;22.70;58.20;;;;;;5019975;28;20041;-68
2022/10/19 00:28:59;;;;;;;4.05;3.20;;;22.80;58.30;;;;;;5021608;28;20121;-68
2022/10/19 00:31:25;;;;;;;7.03;3.30;;;22.80;58.40;;;;;;5033491;28;20052;-69
2022/10/19 00:33:52;;;;;;;6.55;3.30;;;22.60;58.30;;;;;;5034050;28;20064;-68
2022/10/19 00:36:22;;;;;;;4.32;2.90;;;22.50;58.40;;;;;;5033930;28;20033;-68
2022/10/19 00:38:48;;;;;;;5.35;3.22;;;22.70;58.50;;;;;;5039347;28;20037;-68
2022/10/19 00:41:15;;;;;;;4.38;3.17;;;22.60;58.50;;;;;;5054003;28;20074;-68
2022/10/19 00:43:53;;;;;;;6.45;3.10;;;22.50;58.50;;;;;;5044842;28;20064;-68
2022/10/19 00:46:20;;;;;;;5.35;2.95;;;22.40;58.40;;;;;;5026974;28;20041;-68
2022/10/19 00:48:46;;;;;;;6.82;3.63;;;22.50;58.50;;;;;;5013747;28;20057;-69
2022/10/19 00:51:13;;;;;;;9.45;3.67;;;22.60;58.50;;;;;;5032918;28;20091;-68
2022/10/19 00:53:40;;;;;;;8.55;3.33;;;22.40;58.60;;;;;;5034554;28;20059;-68
2022/10/19 00:56:11;;;;;;;5.70;3.22;;;22.40;58.50;;;;;;5052633;28;20087;-68
2022/10/19 00:58:38;;;;;;;6.85;3.30;;;22.50;58.60;;;;;;5046230;28;20136;-68
2022/10/19 01:01:07;;;;;;;6.13;3.50;;;22.40;58.60;;;;;;5031043;28;20394;-68
2022/10/19 01:03:34;;;;;;;6.95;3.83;;;22.60;58.60;;;;;;5031891;28;20129;-68
2022/10/19 01:06:00;;;;;;;7.63;3.92;;;22.40;58.60;;;;;;5032063;28;20061;-68
2022/10/19 01:08:27;;;;;;;6.32;3.75;;;22.40;58.60;;;;;;5034475;28;20036;-68
2022/10/19 01:11:02;;;;;;;6.75;3.35;;;22.40;58.70;;;;;;5041839;28;20029;-68
2022/10/19 01:13:38;;;;;;;6.93;3.08;;;22.50;58.70;;;;;;5030598;28;20528;-68
2022/10/19 01:16:30;;;;;;;6.00;3.90;;;22.60;58.70;;;;;;5031078;28;20108;-68
2022/10/19 01:19:11;;;;;;;6.05;3.70;;;22.40;58.60;;;;;;5031167;28;20033;-68
2022/10/19 01:21:57;;;;;;;6.32;3.35;;;22.40;58.60;;;;;;5011456;28;20397;-68
2022/10/19 01:24:29;;;;;;;5.60;3.20;;;22.40;58.70;;;;;;5027686;28;20084;-68
2022/10/19 01:27:08;;;;;;;9.87;4.03;;;22.40;58.70;;;;;;5013156;28;20061;-68
2022/10/19 01:29:42;;;;;;;6.82;3.92;;;22.30;58.80;;;;;;5023873;28;20340;-68
2022/10/19 01:32:22;;;;;;;10.23;5.07;;;22.20;58.60;;;;;;5030574;28;20112;-68
2022/10/19 01:35:17;;;;;;;10.57;4.70;;;22.30;58.90;;;;;;5026666;28;20025;-68
2022/10/19 01:38:01;;;;;;;5.90;4.20;;;22.30;58.90;;;;;;4971228;28;20400;-68
2022/10/19 01:40:41;;;;;;;9.77;4.45;;;22.20;59.00;;;;;;4990896;28;20042;-68
2022/10/19 01:43:20;;;;;;;9.93;5.07;;;22.20;59.00;;;;;;4971494;28;20038;-68
2022/10/19 01:45:59;;;;;;;8.07;4.65;;;22.10;59.10;;;;;;4970238;28;20050;-68
2022/10/19 01:48:31;;;;;;;9.68;5.15;;;22.20;59.10;;;;;;4970698;28;20106;-68
2022/10/19 01:51:10;;;;;;;7.15;4.72;;;22.10;59.10;;;;;;4970437;28;20049;-68
2022/10/19 01:53:46;;;;;;;7.68;5.03;;;22.10;59.10;;;;;;4976904;28;20018;-67
2022/10/19 01:56:15;;;;;;;9.52;5.20;;;22.10;59.10;;;;;;4989343;28;20038;-68
2022/10/19 01:58:44;;;;;;;11.43;5.18;;;22.10;59.10;;;;;;4980653;28;20034;-68
2022/10/19 02:01:14;;;;;;;7.15;4.70;;;22.10;59.10;;;;;;4970175;28;20089;-68
2022/10/19 02:03:41;;;;;;;9.43;5.07;;;22.20;59.00;;;;;;4954276;28;20043;-68
2022/10/19 02:06:10;;;;;;;9.73;4.65;;;22.10;59.00;;;;;;4937796;28;20113;-68
2022/10/19 02:08:56;;;;;;;7.32;4.47;;;22.10;59.10;;;;;;4971889;28;20587;-68
2022/10/19 02:11:23;;;;;;;6.43;4.60;;;22.10;59.00;;;;;;4970694;28;20038;-68
2022/10/19 02:13:58;;;;;;;10.63;4.60;;;22.20;59.00;;;;;;4992872;28;20525;-68
2022/10/19 02:16:29;;;;;;;9.27;4.85;;;22.10;58.90;;;;;;5030640;28;20116;-68
2022/10/19 02:18:58;;;;;;;7.57;5.03;;;22.10;58.80;;;;;;5032232;28;20041;-68
2022/10/19 02:21:25;;;;;;;9.07;4.75;;;22.00;58.70;;;;;;4996690;28;20049;-68
2022/10/19 02:23:51;;;;;;;9.60;4.70;;;22.10;58.90;;;;;;5030988;28;20112;-68
2022/10/19 02:26:18;;;;;;;8.15;4.93;;;22.10;59.00;;;;;;5031795;28;20041;-68
2022/10/19 02:28:44;;;;;;;14.00;5.00;;;22.00;59.00;;;;;;5030795;28;20053;-68
2022/10/19 02:31:11;;;;;;;6.40;3.92;;;22.10;59.20;;;;;;5027757;28;20666;-68
2022/10/19 02:33:38;;;;;;;11.57;5.13;;;22.00;59.20;;;;;;5031988;28;20496;-68
2022/10/19 02:36:04;;;;;;;10.25;5.93;;;21.90;59.30;;;;;;5049253;28;20021;-68
2022/10/19 02:38:30;;;;;;;8.30;4.90;;;21.90;59.30;;;;;;5048691;28;20029;-68
2022/10/19 02:41:14;;;;;;;6.97;4.78;;;21.90;59.40;;;;;;5035041;28;20048;-68
2022/10/19 02:43:43;;;;;;;8.63;5.25;;;21.90;59.60;;;;;;5030319;28;20040;-68
2022/10/19 02:46:17;;;;;;;7.15;4.30;;;21.90;59.60;;;;;;5030383;28;20069;-68
2022/10/19 02:48:44;;;;;;;12.00;4.78;;;21.90;59.60;;;;;;5031142;28;20402;-68
2022/10/19 02:51:38;;;;;;;7.25;4.45;;;21.90;59.70;;;;;;5031283;28;20029;-68
2022/10/19 02:54:06;;;;;;;15.75;4.70;;;21.90;59.70;;;;;;5030573;28;20025;-68
2022/10/19 02:56:33;;;;;;;12.43;6.28;;;21.80;59.60;;;;;;5039157;28;20414;-68
2022/10/19 02:59:00;;;;;;;8.45;5.07;;;21.70;59.60;;;;;;5030461;28;20100;-68
2022/10/19 03:01:26;;;;;;;14.38;5.78;;;21.70;59.70;;;;;;5030034;28;20033;-68
2022/10/19 03:03:52;;;;;;;14.43;6.03;;;21.70;59.80;;;;;;5031378;28;20173;-68
2022/10/19 03:06:18;;;;;;;11.38;5.70;;;21.60;59.70;;;;;;5012357;28;20045;-69
2022/10/19 03:08:45;;;;;;;11.63;5.25;;;21.80;59.90;;;;;;5031599;28;20033;-68
2022/10/19 03:11:10;;;;;;;9.65;5.55;;;21.60;59.60;;;;;;5049717;28;20033;-68
2022/10/19 03:13:36;;;;;;;12.30;5.70;;;21.70;59.70;;;;;;5040342;28;20079;-68
2022/10/19 03:16:07;;;;;;;9.95;5.45;;;21.70;59.60;;;;;;5028937;28;20025;-68
2022/10/19 03:18:33;;;;;;;13.13;5.60;;;21.70;59.50;;;;;;5030301;28;20033;-68
2022/10/19 03:21:08;;;;;;;13.23;5.50;;;21.80;59.30;;;;;;5029987;28;20026;-68
2022/10/19 03:23:34;;;;;;;13.15;5.80;;;21.80;59.30;;;;;;5030719;28;20103;-68
2022/10/19 03:26:01;;;;;;;17.50;5.95;;;21.80;59.20;;;;;;5031845;28;20053;-68
2022/10/19 03:28:27;;;;;;;13.57;5.38;;;21.80;59.20;;;;;;5044018;28;20060;-68
2022/10/19 03:30:53;;;;;;;10.50;5.40;;;21.70;59.20;;;;;;5030188;28;20120;-68
2022/10/19 03:33:19;;;;;;;10.90;5.25;;;21.90;59.30;;;;;;5031181;28;20038;-68
2022/10/19 03:35:45;;;;;;;7.20;4.43;;;21.80;59.10;;;;;;5029807;28;20036;-68
2022/10/19 03:38:11;;;;;;;7.15;4.50;;;21.90;59.00;;;;;;5025662;28;20039;-67
2022/10/19 03:40:38;;;;;;;7.32;4.75;;;21.90;59.00;;;;;;5029904;28;20144;-68
2022/10/19 03:43:04;;;;;;;9.13;4.78;;;22.00;58.90;;;;;;5030055;28;20041;-68
2022/10/19 03:45:30;;;;;;;12.88;5.15;;;22.00;58.80;;;;;;5028715;28;20041;-67
2022/10/19 03:47:56;;;;;;;11.82;5.60;;;22.00;58.60;;;;;;5030450;28;20039;-68
2022/10/19 03:50:22;;;;;;;14.07;5.75;;;21.90;58.80;;;;;;5030772;28;20038;-68
2022/10/19 03:52:48;;;;;;;12.40;5.57;;;22.00;58.90;;;;;;5032722;28;20090;-68
2022/10/19 03:55:15;;;;;;;16.00;5.53;;;22.00;58.80;;;;;;5038394;28;20041;-68
2022/10/19 03:57:42;;;;;;;9.35;5.15;;;22.10;58.90;;;;;;5032952;28;20033;-68
2022/10/19 04:00:09;;;;;;;12.63;5.38;;;22.00;58.80;;;;;;5032828;28;20026;-68
2022/10/19 04:02:38;;;;;;;16.15;5.75;;;22.00;58.90;;;;;;4996450;28;20034;-68
2022/10/19 04:05:04;;;;;;;12.73;5.75;;;22.00;58.80;;;;;;5033444;28;20038;-68
2022/10/19 04:07:30;;;;;;;13.15;5.20;;;22.00;58.80;;;;;;5033723;28;20104;-68
2022/10/19 04:09:56;;;;;;;14.13;5.50;;;22.10;58.90;;;;;;5044573;28;20025;-68
2022/10/19 04:12:22;;;;;;;12.35;5.20;;;22.10;58.80;;;;;;5036701;28;20040;-68
2022/10/19 04:14:48;;;;;;;10.55;5.18;;;22.10;58.80;;;;;;5033261;28;20038;-68
2022/10/19 04:17:14;;;;;;;8.68;5.38;;;22.00;58.70;;;;;;5033412;28;20056;-68
2022/10/19 04:19:40;;;;;;;8.45;5.25;;;22.10;58.70;;;;;;5033083;28;20450;-68
2022/10/19 04:22:06;;;;;;;8.50;5.00;;;22.10;58.70;;;;;;5034323;28;20375;-68
2022/10/19 04:24:32;;;;;;;13.13;5.10;;;22.10;58.60;;;;;;5011365;28;20136;-68
2022/10/19 04:26:57;;;;;;;11.88;4.97;;;22.10;58.50;;;;;;5011605;28;20045;-68
2022/10/19 04:29:25;;;;;;;15.50;6.13;;;22.00;58.50;;;;;;5024689;28;20025;-67
2022/10/19 04:31:52;;;;;;;15.00;5.35;;;22.00;58.60;;;;;;5031354;28;20124;-68
2022/10/19 04:34:19;;;;;;;6.88;5.30;;;22.00;58.60;;;;;;5032294;28;20076;-68
2022/10/19 04:36:45;;;;;;;12.13;5.93;;;22.00;58.80;;;;;;5031343;28;20057;-68
2022/10/19 04:39:11;;;;;;;15.38;5.78;;;21.90;58.80;;;;;;5032544;28;20030;-67
2022/10/19 04:41:37;;;;;;;6.55;4.75;;;21.90;58.70;;;;;;5031781;28;20032;-66
2022/10/19 04:44:07;;;;;;;7.65;4.70;;;21.90;52.10;;;;;;5031985;28;20513;-67
2022/10/19 04:46:34;;;;;;;7.32;4.13;;;22.00;52.90;;;;;;5033099;28;20171;-66
2022/10/19 04:49:00;;;;;;;8.88;3.22;;;22.20;51.40;;;;;;4997779;28;20076;-68
2022/10/19 04:51:27;;;;;;;6.65;4.00;;;22.30;52.20;;;;;;5040654;28;20037;-69
2022/10/19 04:53:55;;;;;;;5.20;3.60;;;22.30;51.00;;;;;;5006530;28;20037;-69
2022/10/19 04:56:24;;;;;;;6.03;4.60;;;22.30;51.40;;;;;;5033988;28;20025;-68
2022/10/19 04:58:57;;;;;;;9.68;6.97;;;22.50;54.20;;;;;;5034662;28;20565;-68
2022/10/19 05:01:24;;;;;;;13.18;9.02;;;22.50;53.60;;;;;;5027778;28;20135;-68
2022/10/19 05:04:09;;;;;;;18.30;9.95;;;22.60;53.50;;;;;;5030576;28;20407;-67
2022/10/19 05:06:34;;;;;;;22.10;7.80;;;22.60;53.00;;;;;;5030621;28;20041;-68
2022/10/19 05:09:00;;;;;;;21.60;7.38;;;22.70;59.50;;;;;;5030236;28;20075;-67
2022/10/19 05:11:27;;;;;;;12.27;7.07;;;22.80;61.80;;;;;;5029886;28;20025;-67
2022/10/19 05:13:54;;;;;;;17.02;7.22;;;22.90;60.70;;;;;;5030894;28;20439;-68
2022/10/19 05:16:22;;;;;;;9.27;5.88;;;22.80;61.30;;;;;;5025555;28;20060;-68
2022/10/19 05:18:57;;;;;;;14.90;6.28;;;22.80;61.50;;;;;;4993046;28;20050;-67
2022/10/19 05:21:25;;;;;;;12.05;6.32;;;22.80;63.40;;;;;;5030731;28;20038;-68
2022/10/19 05:23:53;;;;;;;9.82;6.63;;;22.80;67.40;;;;;;5026484;28;20045;-69
2022/10/19 05:26:21;;;;;;;12.75;6.53;;;22.80;67.80;;;;;;5049433;28;20036;-66
2022/10/19 05:28:56;;;;;;;20.88;7.43;;;22.80;65.60;;;;;;5039158;28;20033;-66
2022/10/19 05:31:25;;;;;;;15.07;7.80;;;22.70;64.60;;;;;;5030710;28;20076;-66
2022/10/19 05:33:51;;;;;;;12.65;7.25;;;22.70;64.00;;;;;;5031931;28;20102;-66
2022/10/19 05:36:24;;;;;;;21.35;8.15;;;22.80;63.90;;;;;;5031313;28;20033;-67
2022/10/19 05:38:51;;;;;;;23.08;9.60;;;22.70;63.70;;;;;;5031524;28;20036;-66
2022/10/19 05:41:19;;;;;;;26.40;8.98;;;22.80;63.60;;;;;;5035833;28;20025;-65
2022/10/19 05:43:50;;;;;;;22.58;8.88;;;22.80;63.60;;;;;;4996253;28;20049;-67
2022/10/19 05:46:17;;;;;;;18.80;8.88;;;22.70;63.60;;;;;;5028658;28;20033;-67
2022/10/19 05:48:44;;;;;;;27.42;10.43;;;22.80;63.90;;;;;;5031332;28;20022;-65
2022/10/19 05:51:12;;;;;;;21.23;10.20;;;22.80;64.00;;;;;;5032473;28;20501;-66
2022/10/19 05:53:39;;;;;;;19.70;9.60;;;22.80;63.80;;;;;;5026524;28;20041;-66
2022/10/19 05:56:06;;;;;;;24.05;9.68;;;22.90;63.20;;;;;;5012359;28;20084;-67
2022/10/19 05:58:33;;;;;;;26.25;10.02;;;23.00;62.70;;;;;;5028041;28;20029;-66
2022/10/19 06:01:00;;;;;;;25.90;10.40;;;22.90;63.00;;;;;;5029611;28;20033;-67
2022/10/19 06:03:26;;;;;;;23.88;9.73;;;22.80;63.40;;;;;;5027403;28;20150;-69
2022/10/19 06:05:54;;;;;;;31.52;11.07;;;22.70;63.90;;;;;;5029314;28;20045;-69
2022/10/19 06:08:21;;;;;;;16.30;9.38;;;22.70;63.50;;;;;;5028647;28;20119;-68
2022/10/19 06:10:48;;;;;;;23.42;10.35;;;23.00;63.30;;;;;;5028742;28;20135;-67
2022/10/19 06:13:15;;;;;;;17.10;8.27;;;22.70;63.00;;;;;;5009392;28;20144;-67
2022/10/19 06:15:41;;;;;;;14.38;7.68;;;22.60;63.50;;;;;;5026131;28;20111;-69
2022/10/19 06:18:12;;;;;;;11.98;6.05;;;22.60;63.70;;;;;;5026422;28;20128;-67
2022/10/19 06:20:40;;;;;;;9.82;5.20;;;22.70;63.40;;;;;;5008535;28;20152;-68
2022/10/19 06:23:07;;;;;;;8.93;3.60;;;22.90;63.00;;;;;;5027769;28;20128;-67
2022/10/19 06:25:34;;;;;;;6.25;3.33;;;22.90;62.70;;;;;;5027606;28;20034;-69
2022/10/19 06:28:01;;;;;;;8.02;4.35;;;23.00;62.40;;;;;;5028629;28;20114;-68
2022/10/19 06:30:27;;;;;;;19.75;6.47;;;23.00;62.00;;;;;;5026703;28;20457;-67
2022/10/19 06:32:53;;;;;;;8.05;3.95;;;23.10;61.70;;;;;;5028522;28;20470;-69
2022/10/19 06:35:20;;;;;;;8.25;4.90;;;23.30;61.40;;;;;;5028234;28;20490;-67
2022/10/19 06:37:46;;;;;;;8.98;4.70;;;23.20;60.90;;;;;;5027256;28;20090;-67
2022/10/19 06:40:12;;;;;;;22.40;7.80;;;23.20;60.40;;;;;;5028174;28;20038;-67
2022/10/19 06:42:38;;;;;;;11.57;6.47;;;23.40;60.10;;;;;;5027385;28;20037;-67
2022/10/19 06:45:13;;;;;;;6.60;3.70;;;23.30;59.70;;;;;;5025508;28;20038;-67
2022/10/19 06:47:39;;;;;;;7.97;5.53;;;23.40;59.30;;;;;;5027796;28;20512;-68
2022/10/19 06:50:06;;;;;;;12.57;5.28;;;23.40;59.10;;;;;;5026985;28;20132;-67
2022/10/19 06:52:33;;;;;;;9.73;5.07;;;23.40;58.90;;;;;;5028347;28;20728;-66
2022/10/19 06:54:59;;;;;;;7.95;4.28;;;23.40;58.70;;;;;;5027837;28;20037;-69
2022/10/19 06:57:25;;;;;;;12.48;4.90;;;23.40;58.60;;;;;;5028653;28;20076;-68
2022/10/19 06:59:51;;;;;;;10.07;5.25;;;23.40;58.50;;;;;;5031055;28;20438;-67
2022/10/19 07:02:18;;;;;;;12.73;5.45;;;23.40;58.40;;;;;;5018711;28;20124;-66
2022/10/19 07:04:44;;;;;;;12.38;6.00;;;23.30;58.30;;;;;;5020614;28;20029;-67
2022/10/19 07:07:10;;;;;;;11.55;5.03;;;23.40;58.20;;;;;;5024390;28;20537;-67
2022/10/19 07:09:36;;;;;;;5.78;3.92;;;23.40;58.20;;;;;;5020897;28;20076;-68
2022/10/19 07:12:02;;;;;;;17.85;5.97;;;23.40;58.10;;;;;;5032000;28;20466;-67
2022/10/19 07:14:28;;;;;;;11.13;5.10;;;23.30;58.00;;;;;;5027525;28;20025;-66
2022/10/19 07:16:54;;;;;;;10.73;5.20;;;23.30;57.80;;;;;;5034788;28;20036;-67
2022/10/19 07:19:24;;;;;;;13.65;5.70;;;23.40;57.50;;;;;;5024137;28;20526;-67
2022/10/19 07:21:50;;;;;;;16.13;5.93;;;23.30;57.30;;;;;;5029823;28;20080;-67
2022/10/19 07:24:16;;;;;;;1.67;1.23;;;23.30;57.40;;;;;;5028690;28;20041;-66
2022/10/19 07:26:42;;;;;;;3.08;2.80;;;23.50;60.20;;;;;;5030779;28;20045;-67
2022/10/19 07:29:09;;;;;;;9.00;4.10;;;23.80;60.20;;;;;;5029711;28;20040;-66
2022/10/19 07:31:35;;;;;;;2.08;0.88;;;23.90;59.10;;;;;;5032629;28;20124;-66
2022/10/19 07:34:03;;;;;;;0.65;0.65;;;23.80;57.50;;;;;;5032201;28;20040;-67
2022/10/19 07:36:51;;;;;;;9.77;5.88;;;23.80;56.80;;;;;;5015562;28;20045;-66
2022/10/19 07:39:17;;;;;;;10.48;2.88;;;23.70;56.30;;;;;;5011180;28;20135;-66
2022/10/19 07:41:43;;;;;;;8.52;4.10;;;23.80;55.80;;;;;;4986338;28;20144;-66
2022/10/19 07:44:10;;;;;;;10.85;6.15;;;23.60;55.00;;;;;;5018786;28;20049;-65
2022/10/19 07:46:37;;;;;;;13.70;7.90;;;23.80;51.60;;;;;;5013608;28;20094;-65
2022/10/19 07:49:08;;;;;;;11.57;7.20;;;23.60;52.60;;;;;;5029115;28;20029;-66
2022/10/19 07:51:36;;;;;;;22.88;10.35;;;23.70;53.30;;;;;;5025644;28;20100;-66
2022/10/19 07:54:02;;;;;;;12.43;5.78;;;23.70;52.30;;;;;;5020644;28;20034;-66
2022/10/19 07:56:48;;;;;;;12.38;7.18;;;23.70;53.90;;;;;;4966042;28;20048;-65
2022/10/19 07:59:16;;;;;;;13.23;7.47;;;23.70;54.40;;;;;;5008790;28;20049;-65
2022/10/19 08:01:43;;;;;;;14.25;5.97;;;23.80;54.50;;;;;;4943486;28;20054;-65
2022/10/19 08:04:09;;;;;;;14.52;5.90;;;23.70;54.70;;;;;;4999920;28;20081;-63
2022/10/19 08:06:37;;;;;;;14.52;7.63;;;23.60;54.20;;;;;;4987359;28;20050;-65
2022/10/19 08:09:03;;;;;;;15.90;7.65;;;23.70;54.80;;;;;;4973415;28;20034;-66
2022/10/19 08:11:32;;;;;;;20.40;8.02;;;23.70;54.20;;;;;;4991578;28;20037;-66
2022/10/19 08:14:01;;;;;;;12.82;7.18;;;23.60;54.90;;;;;;4992534;28;20490;-67
2022/10/19 08:16:31;;;;;;;19.60;8.35;;;23.60;55.00;;;;;;5001922;28;20852;-67
2022/10/19 08:19:00;;;;;;;12.23;5.97;;;23.70;56.30;;;;;;4993101;28;20034;-65
2022/10/19 08:21:27;;;;;;;16.38;8.48;;;23.50;56.40;;;;;;5009039;28;20080;-66
2022/10/19 08:23:53;;;;;;;16.38;8.52;;;23.60;54.60;;;;;;5022494;28;20112;-66
2022/10/19 08:26:20;;;;;;;14.43;9.80;;;23.60;55.40;;;;;;5007308;28;20033;-66
2022/10/19 08:28:47;;;;;;;18.33;8.35;;;23.70;54.20;;;;;;5039067;28;20397;-66
2022/10/19 08:31:19;;;;;;;18.00;10.68;;;23.60;55.70;;;;;;5031931;28;20530;-65
2022/10/19 08:33:47;;;;;;;14.68;8.55;;;23.60;53.80;;;;;;5045357;28;20040;-66
2022/10/19 08:36:13;;;;;;;18.33;9.75;;;23.70;55.40;;;;;;5047655;28;20040;-66
2022/10/19 08:38:42;;;;;;;16.27;8.90;;;23.60;51.80;;;;;;5033596;28;20033;-65
2022/10/19 08:41:21;;;;;;;13.90;8.82;;;23.60;54.00;;;;;;5032396;28;20087;-66
2022/10/19 08:44:03;;;;;;;20.52;9.38;;;23.60;55.10;;;;;;5033259;28;20041;-66
2022/10/19 08:46:51;;;;;;;18.83;8.95;;;23.60;53.00;;;;;;5032614;28;20141;-66
2022/10/19 08:49:20;;;;;;;15.20;6.47;;;23.60;54.80;;;;;;5032015;28;20386;-66
2022/10/19 08:51:56;;;;;;;16.17;7.95;;;23.60;54.80;;;;;;5030298;28;20095;-66
2022/10/19 08:54:27;;;;;;;16.10;8.30;;;23.60;53.40;;;;;;5032498;28;20033;-66
2022/10/19 08:57:21;;;;;;;15.18;8.20;;;23.50;54.20;;;;;;5031378;28;20037;-66
2022/10/19 09:00:06;;;;;;;14.68;8.10;;;23.50;55.20;;;;;;4988253;28;20038;-65
2022/10/19 09:03:03;;;;;;;6.22;3.63;;;23.70;55.80;;;;;;4990280;28;20093;-66
2022/10/19 09:05:39;;;;;;;7.18;4.53;;;23.60;52.60;;;;;;5007668;28;20104;-66
2022/10/19 09:08:08;;;;;;;10.48;6.68;;;23.50;50.80;;;;;;4977890;28;20506;-67
2022/10/19 09:10:39;;;;;;;6.78;4.30;;;23.60;50.50;;;;;;4972797;28;20197;-66
2022/10/19 09:13:26;;;;;;;5.10;3.53;;;23.60;50.60;;;;;;4953089;28;20041;-67
2022/10/19 09:15:54;;;;;;;8.38;3.45;;;23.70;53.00;;;;;;4989508;28;20534;-67
2022/10/19 09:18:27;;;;;;;7.80;5.07;;;23.80;52.00;;;;;;4988360;28;20054;-67
2022/10/19 09:21:14;;;;;;;8.20;4.80;;;23.90;53.50;;;;;;4974162;28;20054;-66
2022/10/19 09:24:03;;;;;;;13.55;6.47;;;24.10;52.00;;;;;;4990976;28;20046;-65
2022/10/19 09:26:50;;;;;;;8.70;5.60;;;24.20;55.80;;;;;;4989648;28;20085;-66
2022/10/19 09:29:29;;;;;;;9.88;5.28;;;24.40;56.10;;;;;;4988111;28;20069;-66
2022/10/19 09:31:59;;;;;;;13.13;6.63;;;24.60;57.20;;;;;;4987311;28;20037;-65
2022/10/19 09:35:05;;;;;;;14.90;6.30;;;24.60;56.60;;;;;;4986777;28;20045;-66
2022/10/19 09:37:35;;;;;;;11.25;7.50;;;24.80;56.90;;;;;;4961811;28;20039;-67
2022/10/19 09:40:04;;;;;;;10.60;5.60;;;25.00;59.60;;;;;;4967766;28;20050;-66
2022/10/19 09:42:32;;;;;;;11.10;6.45;;;25.00;55.90;;;;;;4967368;28;20054;-65
2022/10/19 09:45:01;;;;;;;11.60;6.10;;;24.90;50.50;;;;;;4971325;28;20069;-66
2022/10/19 09:47:37;;;;;;;10.88;4.28;;;24.80;47.80;;;;;;4968555;28;20632;-69
2022/10/19 09:50:17;;;;;;;5.10;3.60;;;24.70;46.90;;;;;;4976168;28;20168;-66
2022/10/19 09:53:01;;;;;;;10.23;3.85;;;24.60;47.40;;;;;;4968729;28;20058;-68
2022/10/19 09:55:40;;;;;;;9.18;3.90;;;24.70;45.80;;;;;;4951816;28;20492;-70
2022/10/19 09:58:12;;;;;;;4.72;3.00;;;24.40;46.00;;;;;;4969305;28;20093;-69
2022/10/19 10:00:46;;;;;;;2.50;2.07;;;24.40;47.00;;;;;;4970863;28;20042;-67
2022/10/19 10:03:25;;;;;;;4.75;2.70;;;24.30;46.90;;;;;;4967141;28;20080;-67
2022/10/19 10:05:53;;;;;;;9.98;4.15;;;24.30;47.90;;;;;;4966537;28;20504;-67
2022/10/19 10:08:26;;;;;;;7.40;3.03;;;24.30;49.30;;;;;;5007163;28;20371;-67
2022/10/19 10:10:58;;;;;;;4.70;3.03;;;24.30;49.80;;;;;;5028497;28;20033;-67
2022/10/19 10:13:26;;;;;;;4.90;3.53;;;24.30;49.90;;;;;;5026705;28;20044;-67
2022/10/19 10:15:59;;;;;;;9.85;2.88;;;24.30;49.10;;;;;;5035185;28;20033;-67
2022/10/19 10:18:27;;;;;;;8.27;3.05;;;24.20;52.90;;;;;;5017396;28;20082;-66
2022/10/19 10:21:12;;;;;;;5.88;2.40;;;24.30;47.90;;;;;;5028767;28;20116;-67
2022/10/19 10:23:39;;;;;;;6.35;2.70;;;24.20;48.90;;;;;;5039128;28;20039;-66
2022/10/19 10:26:18;;;;;;;4.35;2.67;;;24.20;48.40;;;;;;5021314;28;20541;-66
2022/10/19 10:28:50;;;;;;;4.50;2.83;;;24.30;49.10;;;;;;5025696;28;20053;-66
2022/10/19 10:31:25;;;;;;;6.07;3.17;;;24.20;50.50;;;;;;5028113;28;20342;-66
2022/10/19 10:34:02;;;;;;;7.50;3.42;;;24.00;50.70;;;;;;5030629;28;20274;-67
2022/10/19 10:36:30;;;;;;;7.55;3.33;;;24.20;50.10;;;;;;5031034;28;20037;-66
2022/10/19 10:39:06;;;;;;;6.35;3.42;;;24.10;48.50;;;;;;5033213;28;20358;-65
2022/10/19 10:41:41;;;;;;;5.68;2.83;;;24.20;47.60;;;;;;5044295;28;20456;-66
2022/10/19 10:44:19;;;;;;;8.85;3.25;;;24.10;54.60;;;;;;5028779;28;20025;-65
2022/10/19 10:46:57;;;;;;;2.58;2.10;;;24.20;55.70;;;;;;5028174;28;20041;-65
2022/10/19 10:49:35;;;;;;;3.63;2.83;;;24.40;55.60;;;;;;5027438;28;20022;-65
2022/10/19 10:52:08;;;;;;;3.47;2.55;;;24.30;55.60;;;;;;5029071;28;20037;-66
2022/10/19 10:54:34;;;;;;;;;;;24.50;56.20;;;;;;5031727;28;20041;-66
2022/10/19 10:57:12;;;;;;;4.85;3.15;;;24.50;56.10;;;;;;5029209;28;19940;-66
2022/10/19 10:59:38;;;;;;;5.70;2.88;;;24.40;55.80;;;;;;5027177;28;20394;-66
2022/10/19 11:02:17;;;;;;;4.53;2.53;;;24.40;56.20;;;;;;5026696;28;20045;-66
2022/10/19 11:04:52;;;;;;;2.85;2.13;;;24.40;55.00;;;;;;5031419;28;20048;-67
2022/10/19 11:07:25;;;;;;;3.33;2.80;;;24.30;56.20;;;;;;5031742;28;20115;-67
2022/10/19 11:10:11;;;;;;;2.15;1.73;;;24.30;55.80;;;;;;5027121;28;20026;-67
2022/10/19 11:12:42;;;;;;;2.28;1.50;;;24.30;55.40;;;;;;5003851;28;20204;-68
2022/10/19 11:15:24;;;;;;;5.03;2.30;;;24.30;56.70;;;;;;5025075;28;20030;-68
2022/10/19 11:17:59;;;;;;;2.25;1.90;;;24.20;57.40;;;;;;5017645;28;20026;-67
2022/10/19 11:20:29;;;;;;;4.88;2.35;;;24.20;56.80;;;;;;5029745;28;20022;-68
2022/10/19 11:23:10;;;;;;;4.28;2.70;;;24.10;57.90;;;;;;5027698;28;20144;-69
2022/10/19 11:25:51;;;;;;;8.98;3.03;;;24.30;61.60;;;;;;5030870;28;20063;-66
2022/10/19 11:28:38;;;;;;;4.40;2.97;;;24.30;62.10;;;;;;5028230;28;20517;-68
2022/10/19 11:31:36;;;;;;;5.40;2.70;;;24.20;54.90;;;;;;5027296;28;20045;-66
2022/10/19 11:34:29;;;;;;;8.30;3.70;;;24.30;53.80;;;;;;5026898;28;20033;-66
2022/10/19 11:37:04;;;;;;;3.40;2.85;;;24.20;52.90;;;;;;5022083;28;20041;-66
2022/10/19 11:40:04;;;;;;;5.75;3.67;;;24.40;53.30;;;;;;5029303;28;20474;-66
2022/10/19 11:42:41;;;;;;;3.35;2.92;;;24.30;53.10;;;;;;4951836;28;20094;-68
2022/10/19 11:45:40;;;;;;;6.78;3.00;;;24.30;53.30;;;;;;4948896;29;20051;-68
2022/10/19 11:48:25;;;;;;;6.05;2.95;;;24.30;49.40;;;;;;4949147;29;20122;-68
2022/10/19 11:50:53;;;;;;;3.63;2.90;;;24.30;49.40;;;;;;4931711;29;20071;-67
2022/10/19 11:53:41;;;;;;;4.63;3.08;;;24.30;56.60;;;;;;4946387;28;20123;-68
2022/10/19 11:56:27;;;;;;;3.38;2.22;;;24.30;57.20;;;;;;4939827;28;20111;-68
2022/10/19 11:59:09;;;;;;;3.80;2.50;;;24.40;56.80;;;;;;4946848;29;20041;-68
2022/10/19 12:01:40;;;;;;;7.40;2.50;;;24.30;57.30;;;;;;4947156;28;20042;-70
2022/10/19 12:04:12;;;;;;;3.30;2.28;;;24.30;56.60;;;;;;4949711;29;20035;-69
2022/10/19 12:07:07;;;;;;;5.22;2.28;;;24.40;57.60;;;;;;4946823;29;20073;-66
2022/10/19 12:09:53;;;;;;;4.20;2.33;;;24.30;56.30;;;;;;4949916;28;20049;-69
2022/10/19 12:12:24;;;;;;;7.88;2.85;;;24.30;56.90;;;;;;4934250;29;20066;-69
2022/10/19 12:15:15;;;;;;;2.65;1.88;;;24.20;58.10;;;;;;4949224;29;20113;-66
2022/10/19 12:17:46;;;;;;;3.03;2.08;;;24.20;57.10;;;;;;4892311;29;20406;-66
2022/10/19 12:20:19;;;;;;;4.32;2.10;;;24.40;56.00;;;;;;4935266;29;20050;-66
2022/10/19 12:22:47;;;;;;;3.40;2.65;;;24.20;57.00;;;;;;4941511;29;20047;-66
2022/10/19 12:25:14;;;;;;;2.00;1.83;;;24.30;57.50;;;;;;4960014;28;20087;-66
2022/10/19 12:27:41;;;;;;;4.03;2.90;;;24.20;57.30;;;;;;4954091;28;20041;-66
2022/10/19 12:30:16;;;;;;;4.05;2.13;;;24.10;57.50;;;;;;4956369;28;20637;-66
2022/10/19 12:33:14;;;;;;;2.92;2.20;;;24.20;57.50;;;;;;4970241;28;20030;-66
2022/10/19 12:35:58;;;;;;;2.67;2.22;;;24.20;57.50;;;;;;4969756;28;20058;-65
2022/10/19 12:38:53;;;;;;;3.00;2.45;;;24.20;57.50;;;;;;4937065;28;20129;-66
2022/10/19 12:41:53;;;;;;;4.75;2.38;;;24.10;56.80;;;;;;4912488;29;20051;-66
2022/10/19 12:44:27;;;;;;;2.40;2.15;;;24.20;57.30;;;;;;4907454;29;20067;-66
2022/10/19 12:46:59;;;;;;;3.30;2.97;;;24.10;57.30;;;;;;4913997;29;20041;-66
2022/10/19 12:49:28;;;;;;;4.63;3.28;;;24.10;57.50;;;;;;4914430;29;20071;-66
2022/10/19 12:51:59;;;;;;;2.60;2.40;;;24.10;56.90;;;;;;4914778;29;20130;-66
2022/10/19 12:54:27;;;;;;;3.25;2.42;;;24.10;57.40;;;;;;4918125;28;20167;-66
2022/10/19 12:56:56;;;;;;;3.47;2.55;;;24.30;57.00;;;;;;4967094;28;20125;-66
2022/10/19 12:59:33;;;;;;;4.95;2.72;;;24.10;56.80;;;;;;4971182;28;20054;-66
2022/10/19 13:02:03;;;;;;;3.10;2.70;;;24.10;56.70;;;;;;4970271;28;20027;-66
2022/10/19 13:04:31;;;;;;;3.60;2.65;;;24.10;55.80;;;;;;4969736;28;20165;-66
2022/10/19 13:07:01;;;;;;;3.63;2.80;;;24.20;56.50;;;;;;4977410;28;20095;-66